sensor_id;sensor_type;location;lat;lon;timestamp;P1;durP1;ratioP1;P2;durP2;ratioP2
57718;SDS011;43561;50.090;18.522;2023-02-15T00:02:15;71.68;;;31.55;;
57718;SDS011;43561;50.090;18.522;2023-02-15T00:12:17;59.63;;;25.73;;
57718;SDS011;43561;50.090;18.522;2023-02-15T00:22:19;44.00;;;26.80;;
57718;SDS011;43561;50.090;18.522;2023-02-15T00:32:21;38.65;;;21.52;;
57718;SDS011;43561;50.090;18.522;2023-02-15T00:42:23;53.38;;;24.48;;
57718;SDS011;43561;50.090;18.522;2023-02-15T00:52:27;49.33;;;27.05;;
57718;SDS011;43561;50.090;18.522;2023-02-15T01:02:29;39.70;;;20.95;;
57718;SDS011;43561;50.090;18.522;2023-02-15T01:12:31;52.67;;;25.85;;
57718;SDS011;43561;50.090;18.522;2023-02-15T01:22:34;56.70;;;28.05;;
57718;SDS011;43561;50.090;18.522;2023-02-15T01:32:36;45.17;;;27.05;;
57718;SDS011;43561;50.090;18.522;2023-02-15T01:42:38;49.55;;;25.83;;
57718;SDS011;43561;50.090;18.522;2023-02-15T01:52:41;57.67;;;30.85;;
57718;SDS011;43561;50.090;18.522;2023-02-15T02:02:55;41.28;;;18.17;;
57718;SDS011;43561;50.090;18.522;2023-02-15T02:12:59;39.78;;;21.60;;
57718;SDS011;43561;50.090;18.522;2023-02-15T02:23:24;42.67;;;24.42;;
57718;SDS011;43561;50.090;18.522;2023-02-15T02:33:57;35.70;;;20.35;;
57718;SDS011;43561;50.090;18.522;2023-02-15T02:54:23;35.85;;;17.23;;
57718;SDS011;43561;50.090;18.522;2023-02-15T03:04:30;43.80;;;18.55;;
57718;SDS011;43561;50.090;18.522;2023-02-15T03:14:36;28.38;;;20.95;;
57718;SDS011;43561;50.090;18.522;2023-02-15T03:34:52;31.50;;;22.33;;
57718;SDS011;43561;50.090;18.522;2023-02-15T03:44:58;49.53;;;27.65;;
57718;SDS011;43561;50.090;18.522;2023-02-15T03:55:10;47.85;;;26.08;;
57718;SDS011;43561;50.090;18.522;2023-02-15T04:05:12;44.67;;;26.98;;
57718;SDS011;43561;50.090;18.522;2023-02-15T04:15:14;42.72;;;25.70;;
57718;SDS011;43561;50.090;18.522;2023-02-15T04:25:16;49.72;;;33.10;;
57718;SDS011;43561;50.090;18.522;2023-02-15T04:35:18;50.20;;;29.88;;
57718;SDS011;43561;50.090;18.522;2023-02-15T04:45:20;42.22;;;26.75;;
57718;SDS011;43561;50.090;18.522;2023-02-15T04:55:22;39.55;;;27.63;;
57718;SDS011;43561;50.090;18.522;2023-02-15T05:05:26;62.42;;;34.08;;
57718;SDS011;43561;50.090;18.522;2023-02-15T05:15:28;48.72;;;29.13;;
57718;SDS011;43561;50.090;18.522;2023-02-15T05:25:29;44.67;;;32.80;;
57718;SDS011;43561;50.090;18.522;2023-02-15T05:35:31;53.88;;;36.75;;
57718;SDS011;43561;50.090;18.522;2023-02-15T05:45:34;107.47;;;53.42;;
57718;SDS011;43561;50.090;18.522;2023-02-15T05:55:39;103.68;;;52.05;;
57718;SDS011;43561;50.090;18.522;2023-02-15T06:05:42;100.32;;;54.53;;
57718;SDS011;43561;50.090;18.522;2023-02-15T06:15:44;120.03;;;62.00;;
57718;SDS011;43561;50.090;18.522;2023-02-15T06:25:46;134.93;;;73.65;;
57718;SDS011;43561;50.090;18.522;2023-02-15T06:35:51;146.40;;;75.63;;
57718;SDS011;43561;50.090;18.522;2023-02-15T06:45:53;117.03;;;62.28;;
57718;SDS011;43561;50.090;18.522;2023-02-15T06:56:01;99.65;;;49.13;;
57718;SDS011;43561;50.090;18.522;2023-02-15T07:06:05;80.38;;;50.40;;
57718;SDS011;43561;50.090;18.522;2023-02-15T07:16:07;92.78;;;55.33;;
57718;SDS011;43561;50.090;18.522;2023-02-15T07:26:10;112.32;;;61.47;;
57718;SDS011;43561;50.090;18.522;2023-02-15T07:36:15;120.88;;;64.50;;
57718;SDS011;43561;50.090;18.522;2023-02-15T07:46:17;107.55;;;49.33;;
57718;SDS011;43561;50.090;18.522;2023-02-15T07:56:19;81.68;;;42.03;;
57718;SDS011;43561;50.090;18.522;2023-02-15T08:06:21;76.00;;;39.88;;
57718;SDS011;43561;50.090;18.522;2023-02-15T08:26:28;67.28;;;34.95;;
57718;SDS011;43561;50.090;18.522;2023-02-15T08:36:31;53.63;;;29.60;;
57718;SDS011;43561;50.090;18.522;2023-02-15T08:46:35;51.63;;;23.45;;
57718;SDS011;43561;50.090;18.522;2023-02-15T08:56:40;46.78;;;25.15;;
57718;SDS011;43561;50.090;18.522;2023-02-15T09:06:43;59.17;;;29.88;;
57718;SDS011;43561;50.090;18.522;2023-02-15T09:16:49;54.60;;;28.63;;
57718;SDS011;43561;50.090;18.522;2023-02-15T09:26:53;60.08;;;28.48;;
57718;SDS011;43561;50.090;18.522;2023-02-15T09:36:55;46.83;;;25.00;;
57718;SDS011;43561;50.090;18.522;2023-02-15T09:57:37;44.63;;;22.05;;
57718;SDS011;43561;50.090;18.522;2023-02-15T10:38:58;38.88;;;17.52;;
57718;SDS011;43561;50.090;18.522;2023-02-15T10:59:46;50.30;;;18.73;;
57718;SDS011;43561;50.090;18.522;2023-02-15T11:10:29;46.47;;;19.05;;
57718;SDS011;43561;50.090;18.522;2023-02-15T11:20:38;33.20;;;17.65;;
57718;SDS011;43561;50.090;18.522;2023-02-15T11:31:26;48.67;;;25.90;;
57718;SDS011;43561;50.090;18.522;2023-02-15T11:41:38;32.97;;;18.35;;
57718;SDS011;43561;50.090;18.522;2023-02-15T11:51:45;37.53;;;17.15;;
57718;SDS011;43561;50.090;18.522;2023-02-15T12:01:47;41.75;;;20.40;;
57718;SDS011;43561;50.090;18.522;2023-02-15T12:11:48;44.47;;;16.25;;
57718;SDS011;43561;50.090;18.522;2023-02-15T12:21:51;35.80;;;18.25;;
57718;SDS011;43561;50.090;18.522;2023-02-15T12:31:55;43.08;;;18.70;;
57718;SDS011;43561;50.090;18.522;2023-02-15T12:42:03;38.95;;;15.55;;
57718;SDS011;43561;50.090;18.522;2023-02-15T12:52:23;35.03;;;14.85;;
57718;SDS011;43561;50.090;18.522;2023-02-15T13:02:31;37.57;;;19.67;;
57718;SDS011;43561;50.090;18.522;2023-02-15T13:12:46;32.30;;;14.40;;
57718;SDS011;43561;50.090;18.522;2023-02-15T13:22:50;39.15;;;17.92;;
57718;SDS011;43561;50.090;18.522;2023-02-15T13:33:04;30.60;;;14.98;;
57718;SDS011;43561;50.090;18.522;2023-02-15T14:49:31;39.05;;;17.60;;
57718;SDS011;43561;50.090;18.522;2023-02-15T14:59:44;26.45;;;13.07;;
57718;SDS011;43561;50.090;18.522;2023-02-15T15:10:06;28.83;;;16.33;;
57718;SDS011;43561;50.090;18.522;2023-02-15T15:20:40;38.33;;;18.80;;
57718;SDS011;43561;50.090;18.522;2023-02-15T15:30:52;43.90;;;20.38;;
57718;SDS011;43561;50.090;18.522;2023-02-15T16:02:55;41.50;;;19.08;;
57718;SDS011;43561;50.090;18.522;2023-02-15T16:13:07;49.03;;;23.30;;
57718;SDS011;43561;50.090;18.522;2023-02-15T16:33:48;59.77;;;24.97;;
57718;SDS011;43561;50.090;18.522;2023-02-15T16:43:54;60.25;;;26.35;;
57718;SDS011;43561;50.090;18.522;2023-02-15T16:56:07;55.58;;;24.77;;
57718;SDS011;43561;50.090;18.522;2023-02-15T17:05:50;67.25;;;28.23;;
57718;SDS011;43561;50.090;18.522;2023-02-15T17:16:45;56.25;;;26.13;;
57718;SDS011;43561;50.090;18.522;2023-02-15T17:26:54;64.03;;;29.35;;
57718;SDS011;43561;50.090;18.522;2023-02-15T17:36:58;58.35;;;31.73;;
57718;SDS011;43561;50.090;18.522;2023-02-15T18:08:38;64.65;;;29.70;;
57718;SDS011;43561;50.090;18.522;2023-02-15T18:18:52;64.60;;;36.28;;
57718;SDS011;43561;50.090;18.522;2023-02-15T18:28:56;76.18;;;34.03;;
57718;SDS011;43561;50.090;18.522;2023-02-15T18:38:58;54.13;;;33.55;;
57718;SDS011;43561;50.090;18.522;2023-02-15T18:49:06;69.43;;;33.55;;
57718;SDS011;43561;50.090;18.522;2023-02-15T18:59:13;61.13;;;33.35;;
57718;SDS011;43561;50.090;18.522;2023-02-15T19:09:18;60.03;;;30.40;;
57718;SDS011;43561;50.090;18.522;2023-02-15T19:29:42;61.13;;;30.80;;
57718;SDS011;43561;50.090;18.522;2023-02-15T19:39:44;53.50;;;24.92;;
57718;SDS011;43561;50.090;18.522;2023-02-15T19:49:47;68.97;;;25.63;;
57718;SDS011;43561;50.090;18.522;2023-02-15T19:59:52;52.30;;;28.88;;
57718;SDS011;43561;50.090;18.522;2023-02-15T20:09:54;38.38;;;23.55;;
57718;SDS011;43561;50.090;18.522;2023-02-15T20:19:56;54.95;;;26.13;;
57718;SDS011;43561;50.090;18.522;2023-02-15T20:29:58;50.08;;;23.92;;
57718;SDS011;43561;50.090;18.522;2023-02-15T20:40:00;58.90;;;28.35;;
57718;SDS011;43561;50.090;18.522;2023-02-15T20:50:07;41.63;;;23.77;;
57718;SDS011;43561;50.090;18.522;2023-02-15T21:00:16;40.58;;;20.05;;
57718;SDS011;43561;50.090;18.522;2023-02-15T21:10:27;42.90;;;26.83;;
57718;SDS011;43561;50.090;18.522;2023-02-15T21:20:36;40.25;;;22.13;;
57718;SDS011;43561;50.090;18.522;2023-02-15T21:30:50;54.05;;;21.77;;
57718;SDS011;43561;50.090;18.522;2023-02-15T21:41:04;36.78;;;22.45;;
57718;SDS011;43561;50.090;18.522;2023-02-15T21:51:06;57.70;;;23.48;;
57718;SDS011;43561;50.090;18.522;2023-02-15T22:01:27;37.97;;;22.15;;
57718;SDS011;43561;50.090;18.522;2023-02-15T22:11:29;35.83;;;23.88;;
57718;SDS011;43561;50.090;18.522;2023-02-15T22:21:31;40.55;;;26.23;;
57718;SDS011;43561;50.090;18.522;2023-02-15T22:31:36;43.47;;;23.00;;
57718;SDS011;43561;50.090;18.522;2023-02-15T22:41:38;28.45;;;19.02;;
57718;SDS011;43561;50.090;18.522;2023-02-15T22:51:40;34.85;;;20.88;;
57718;SDS011;43561;50.090;18.522;2023-02-15T23:01:42;41.72;;;17.77;;
57718;SDS011;43561;50.090;18.522;2023-02-15T23:11:44;33.58;;;17.60;;
57718;SDS011;43561;50.090;18.522;2023-02-15T23:21:46;36.58;;;18.73;;
57718;SDS011;43561;50.090;18.522;2023-02-15T23:31:50;32.13;;;18.73;;
57718;SDS011;43561;50.090;18.522;2023-02-15T23:41:53;47.60;;;24.25;;
57718;SDS011;43561;50.090;18.522;2023-02-15T23:51:56;35.72;;;19.83;;
